createdAt,value
2022-09-27T00:01:36.923Z,18.80
2022-09-27T00:04:05.030Z,18.75
2022-09-27T00:06:35.656Z,18.72
2022-09-27T00:09:06.736Z,18.70
2022-09-27T00:11:35.541Z,18.67
2022-09-27T00:14:04.074Z,18.63
2022-09-27T00:16:33.775Z,18.60
2022-09-27T00:19:03.336Z,18.57
2022-09-27T00:21:31.587Z,18.52
2022-09-27T00:24:00.042Z,18.46
2022-09-27T00:26:28.680Z,18.38
2022-09-27T00:28:56.735Z,18.29
2022-09-27T00:31:28.750Z,18.26
2022-09-27T00:33:57.442Z,18.17
2022-09-27T00:36:26.446Z,18.10
2022-09-27T00:38:54.657Z,18.05
2022-09-27T00:41:24.325Z,17.98
2022-09-27T00:43:54.220Z,17.88
2022-09-27T00:46:26.506Z,17.85
2022-09-27T00:48:59.252Z,17.83
2022-09-27T00:51:27.407Z,17.78
2022-09-27T00:53:57.526Z,17.75
2022-09-27T00:56:27.703Z,17.72
2022-09-27T00:58:57.921Z,17.70
2022-09-27T01:01:26.002Z,17.70
2022-09-27T01:04:08.072Z,17.71
2022-09-27T01:06:37.035Z,17.74
2022-09-27T01:09:05.682Z,17.76
2022-09-27T01:11:39.588Z,17.81
2022-09-27T01:14:21.353Z,17.78
2022-09-27T01:16:55.823Z,17.76
2022-09-27T01:19:38.924Z,17.78
2022-09-27T01:22:09.706Z,17.77
2022-09-27T01:24:52.244Z,17.76
2022-09-27T01:27:36.419Z,17.76
2022-09-27T01:30:25.384Z,17.74
2022-09-27T01:32:58.483Z,17.70
2022-09-27T01:35:32.459Z,17.64
2022-09-27T01:38:06.698Z,17.58
2022-09-27T01:40:40.301Z,17.56
2022-09-27T01:43:12.247Z,17.55
2022-09-27T01:45:43.552Z,17.56
2022-09-27T01:48:14.305Z,17.58
2022-09-27T01:50:44.659Z,17.62
2022-09-27T01:53:15.156Z,17.70
2022-09-27T01:55:44.596Z,17.73
2022-09-27T01:58:14.602Z,17.76
2022-09-27T02:00:44.305Z,17.82
2022-09-27T02:03:14.444Z,17.86
2022-09-27T02:05:45.392Z,17.92
2022-09-27T02:08:17.485Z,17.96
2022-09-27T02:10:46.871Z,18.00
2022-09-27T02:13:17.787Z,18.07
2022-09-27T02:15:49.889Z,18.14
2022-09-27T02:18:21.861Z,18.19
2022-09-27T02:20:52.782Z,18.23
2022-09-27T02:23:22.743Z,18.27
2022-09-27T02:25:54.734Z,18.31
2022-09-27T02:28:28.242Z,18.35
2022-09-27T02:30:56.811Z,18.31
2022-09-27T02:33:28.286Z,18.26
2022-09-27T02:35:56.505Z,18.20
2022-09-27T02:38:24.815Z,18.18
2022-09-27T02:40:53.044Z,18.18
2022-09-27T02:43:23.211Z,18.13
2022-09-27T02:46:01.137Z,18.06
2022-09-27T02:48:31.860Z,18.03
2022-09-27T02:51:19.730Z,18.05
2022-09-27T02:53:53.797Z,18.03
2022-09-27T02:56:26.505Z,17.95
2022-09-27T02:59:00.110Z,17.91
2022-09-27T03:01:32.851Z,17.90
2022-09-27T03:04:05.874Z,17.94
2022-09-27T03:06:35.267Z,17.96
2022-09-27T03:09:03.401Z,18.01
2022-09-27T03:11:32.872Z,18.04
2022-09-27T03:14:08.707Z,18.04
2022-09-27T03:16:37.121Z,18.01
2022-09-27T03:19:05.260Z,18.01
2022-09-27T03:21:33.381Z,17.96
2022-09-27T03:24:01.917Z,17.93
2022-09-27T03:26:30.171Z,17.92
2022-09-27T03:28:58.159Z,17.90
2022-09-27T03:31:26.194Z,17.86
2022-09-27T03:33:54.336Z,17.85
2022-09-27T03:36:22.304Z,17.87
2022-09-27T03:38:50.404Z,17.88
2022-09-27T03:41:18.416Z,17.88
2022-09-27T03:43:46.474Z,17.83
2022-09-27T03:46:14.540Z,17.78
2022-09-27T03:48:42.788Z,17.74
2022-09-27T03:51:11.834Z,17.67
2022-09-27T03:53:39.820Z,17.62
2022-09-27T03:56:08.320Z,17.60
2022-09-27T03:58:36.416Z,17.58
2022-09-27T04:01:04.990Z,17.57
2022-09-27T04:03:33.130Z,17.56
2022-09-27T04:06:01.155Z,17.53
2022-09-27T04:08:29.680Z,17.48
2022-09-27T04:10:57.901Z,17.44
2022-09-27T04:13:26.048Z,17.45
2022-09-27T04:15:54.210Z,17.44
2022-09-27T04:18:23.258Z,17.43
2022-09-27T04:20:51.284Z,17.42
2022-09-27T04:23:20.259Z,17.38
2022-09-27T04:25:48.284Z,17.34
2022-09-27T04:28:16.335Z,17.29
2022-09-27T04:30:45.408Z,17.25
2022-09-27T04:33:13.631Z,17.23
2022-09-27T04:36:00.239Z,17.22
2022-09-27T04:38:28.313Z,17.16
2022-09-27T04:40:56.721Z,17.16
2022-09-27T04:43:24.860Z,17.16
2022-09-27T04:45:52.952Z,17.16
2022-09-27T04:48:21.155Z,17.17
2022-09-27T04:50:55.499Z,17.19
2022-09-27T04:53:23.532Z,17.18
2022-09-27T04:55:53.051Z,17.16
2022-09-27T04:58:21.271Z,17.22
2022-09-27T05:00:51.873Z,17.26
2022-09-27T05:03:19.957Z,17.27
2022-09-27T05:05:47.941Z,17.29
2022-09-27T05:08:16.105Z,17.30
2022-09-27T05:10:44.067Z,17.33
2022-09-27T05:13:12.042Z,17.36
2022-09-27T05:15:40.039Z,17.35
2022-09-27T05:18:09.265Z,17.31
2022-09-27T05:20:37.211Z,17.28
2022-09-27T05:23:05.184Z,17.25
2022-09-27T05:25:33.638Z,17.22
2022-09-27T05:28:02.156Z,17.19
2022-09-27T05:30:30.218Z,17.18
2022-09-27T05:32:58.206Z,17.18
2022-09-27T05:35:26.860Z,17.16
2022-09-27T05:37:55.993Z,17.14
2022-09-27T05:40:40.460Z,17.13
2022-09-27T05:43:09.639Z,17.10
2022-09-27T05:45:37.924Z,17.13
2022-09-27T05:48:06.263Z,17.19
2022-09-27T05:50:34.504Z,17.23
2022-09-27T05:53:02.504Z,17.23
2022-09-27T05:55:30.708Z,17.22
2022-09-27T05:57:59.248Z,17.21
2022-09-27T06:00:28.254Z,17.21
2022-09-27T06:02:58.296Z,17.21
2022-09-27T06:05:27.475Z,17.22
2022-09-27T06:07:59.579Z,17.26
2022-09-27T06:10:27.876Z,17.28
2022-09-27T06:12:59.700Z,17.33
2022-09-27T06:15:27.727Z,17.41
2022-09-27T06:17:55.723Z,17.47
2022-09-27T06:20:23.923Z,17.52
2022-09-27T06:22:53.544Z,17.56
2022-09-27T06:25:21.640Z,17.60
2022-09-27T06:27:49.797Z,17.63
2022-09-27T06:30:20.330Z,17.65
2022-09-27T06:32:48.905Z,17.68
2022-09-27T06:35:17.010Z,17.71
2022-09-27T06:37:45.164Z,17.74
2022-09-27T06:40:13.788Z,17.73
2022-09-27T06:42:42.043Z,17.68
2022-09-27T06:45:10.889Z,17.68
2022-09-27T06:47:39.311Z,17.71
2022-09-27T06:50:11.803Z,17.75
2022-09-27T06:52:46.641Z,17.79
2022-09-27T06:55:15.191Z,17.84
2022-09-27T06:58:01.521Z,17.85
2022-09-27T07:00:29.682Z,17.91
2022-09-27T07:03:00.363Z,17.91
2022-09-27T07:05:28.999Z,17.88
2022-09-27T07:07:57.609Z,17.87
2022-09-27T07:10:26.255Z,17.85
2022-09-27T07:12:54.492Z,17.86
2022-09-27T07:15:22.732Z,17.91
2022-09-27T07:17:57.560Z,17.95
2022-09-27T07:20:26.074Z,17.97
2022-09-27T07:22:55.238Z,17.98
2022-09-27T07:25:23.327Z,17.99
2022-09-27T07:27:52.509Z,17.98
2022-09-27T07:30:21.082Z,17.97
2022-09-27T07:32:49.705Z,17.95
2022-09-27T07:35:18.083Z,17.92
2022-09-27T07:37:46.079Z,17.90
2022-09-27T07:40:14.112Z,17.87
2022-09-27T07:42:42.339Z,17.91
2022-09-27T07:45:11.550Z,17.91
2022-09-27T07:47:40.225Z,17.92
2022-09-27T07:50:10.190Z,17.95
2022-09-27T07:52:41.388Z,17.97
2022-09-27T07:55:13.402Z,17.97
2022-09-27T07:57:41.586Z,17.99
2022-09-27T08:00:11.895Z,18.00
2022-09-27T08:02:41.774Z,18.01
2022-09-27T08:05:10.961Z,18.05
2022-09-27T08:07:39.408Z,18.07
2022-09-27T08:10:08.795Z,18.10
2022-09-27T08:12:36.933Z,18.12
2022-09-27T08:15:06.052Z,18.18
2022-09-27T08:17:34.147Z,18.26
2022-09-27T08:20:05.792Z,18.35
2022-09-27T08:22:33.807Z,18.43
2022-09-27T08:25:01.888Z,18.49
2022-09-27T08:27:29.928Z,18.56
2022-09-27T08:29:58.475Z,18.62
2022-09-27T08:32:28.198Z,18.68
2022-09-27T08:34:56.173Z,18.73
2022-09-27T08:37:24.267Z,18.78
2022-09-27T08:39:52.410Z,18.87
2022-09-27T08:42:25.873Z,19.00
2022-09-27T08:45:03.094Z,19.09
2022-09-27T08:47:34.921Z,19.16
2022-09-27T08:50:09.493Z,19.17
2022-09-27T08:52:40.733Z,19.16
2022-09-27T08:55:17.627Z,19.11
2022-09-27T08:57:50.860Z,19.07
2022-09-27T09:00:19.476Z,19.06
2022-09-27T09:02:47.752Z,19.07
2022-09-27T09:05:17.898Z,19.09
2022-09-27T09:07:55.696Z,19.09
2022-09-27T09:10:50.321Z,19.15
2022-09-27T09:13:24.902Z,19.19
2022-09-27T09:15:57.589Z,19.25
2022-09-27T09:18:33.220Z,19.27
2022-09-27T09:21:05.408Z,19.30
2022-09-27T09:23:47.258Z,19.32
2022-09-27T09:26:18.079Z,19.32
2022-09-27T09:28:52.507Z,19.32
2022-09-27T09:31:24.655Z,19.31
2022-09-27T09:33:54.579Z,19.30
2022-09-27T09:36:25.618Z,19.29
2022-09-27T09:38:56.517Z,19.28
2022-09-27T09:41:28.211Z,19.33
2022-09-27T09:43:58.067Z,19.39
2022-09-27T09:46:31.152Z,19.40
2022-09-27T09:49:07.549Z,19.46
2022-09-27T09:51:39.050Z,19.48
2022-09-27T09:54:10.837Z,19.49
2022-09-27T09:56:40.768Z,19.58
2022-09-27T09:59:12.800Z,19.67
2022-09-27T10:01:44.484Z,19.73
2022-09-27T10:04:20.508Z,19.74
2022-09-27T10:06:48.861Z,19.75
2022-09-27T10:09:19.090Z,19.78
2022-09-27T10:11:47.623Z,19.74
2022-09-27T10:14:16.728Z,19.71
2022-09-27T10:16:48.276Z,19.69
2022-09-27T10:19:19.812Z,19.68
2022-09-27T10:21:49.164Z,19.71
2022-09-27T10:24:19.026Z,19.72
2022-09-27T10:26:50.287Z,19.74
2022-09-27T10:29:21.989Z,19.77
2022-09-27T10:31:50.651Z,19.81
2022-09-27T10:34:20.770Z,19.85
2022-09-27T10:37:01.334Z,19.88
2022-09-27T10:39:29.230Z,19.90
2022-09-27T10:41:59.786Z,19.94
2022-09-27T10:44:33.670Z,19.94
2022-09-27T10:47:09.226Z,19.93
2022-09-27T10:49:38.915Z,19.96
2022-09-27T10:52:09.101Z,20.01
2022-09-27T10:54:41.729Z,20.09
2022-09-27T10:57:18.693Z,20.19
2022-09-27T10:59:50.324Z,20.28
2022-09-27T11:02:20.687Z,20.32
2022-09-27T11:05:03.846Z,20.31
2022-09-27T11:07:35.441Z,20.34
2022-09-27T11:10:21.695Z,20.44
2022-09-27T11:13:05.571Z,20.49
2022-09-27T11:15:38.548Z,20.56
2022-09-27T11:18:12.006Z,20.67
2022-09-27T11:20:46.292Z,20.73
2022-09-27T11:23:28.613Z,20.83
2022-09-27T11:26:05.071Z,20.86
2022-09-27T11:28:39.384Z,20.88
2022-09-27T11:31:13.641Z,20.94
2022-09-27T11:33:56.347Z,20.96
2022-09-27T11:36:33.999Z,20.98
2022-09-27T11:39:06.568Z,21.02
2022-09-27T11:41:45.496Z,21.02
2022-09-27T11:44:21.676Z,21.06
2022-09-27T11:46:53.348Z,21.10
2022-09-27T11:49:36.422Z,21.12
2022-09-27T11:52:12.419Z,21.07
2022-09-27T11:54:47.629Z,21.13
2022-09-27T11:57:18.408Z,21.20
2022-09-27T12:00:07.808Z,21.24
2022-09-27T12:02:43.100Z,21.31
2022-09-27T12:05:20.255Z,21.35
2022-09-27T12:07:52.693Z,21.36
2022-09-27T12:10:21.210Z,21.41
2022-09-27T12:12:52.341Z,21.46
2022-09-27T12:15:21.652Z,21.49
2022-09-27T12:17:52.381Z,21.52
2022-09-27T12:20:23.876Z,21.51
2022-09-27T12:22:59.217Z,21.53
2022-09-27T12:25:30.423Z,21.58
2022-09-27T12:28:01.916Z,21.61
2022-09-27T12:30:31.378Z,21.59
2022-09-27T12:33:04.594Z,21.56
2022-09-27T12:35:36.450Z,21.53
2022-09-27T12:38:06.853Z,21.51
2022-09-27T12:40:38.190Z,21.48
2022-09-27T12:43:17.417Z,21.46
2022-09-27T12:45:51.332Z,21.41
2022-09-27T12:48:25.439Z,21.33
2022-09-27T12:50:55.469Z,21.25
2022-09-27T12:53:26.344Z,21.22
2022-09-27T12:56:06.712Z,21.22
2022-09-27T12:58:49.754Z,21.25
2022-09-27T13:01:23.977Z,21.26
2022-09-27T13:04:00.365Z,21.19
2022-09-27T13:06:46.776Z,21.15
2022-09-27T13:09:28.687Z,21.15
2022-09-27T13:12:01.056Z,21.17
2022-09-27T13:14:31.697Z,21.16
2022-09-27T13:16:59.725Z,21.09
2022-09-27T13:19:42.189Z,21.06
2022-09-27T13:22:31.303Z,21.05
2022-09-27T13:24:59.305Z,21.02
2022-09-27T13:27:37.350Z,20.92
2022-09-27T13:30:23.181Z,20.87
2022-09-27T13:33:05.250Z,20.81
2022-09-27T13:35:33.429Z,20.78
2022-09-27T13:38:02.789Z,20.76
2022-09-27T13:40:33.161Z,20.74
2022-09-27T13:43:26.428Z,20.72
2022-09-27T13:45:56.732Z,20.76
2022-09-27T13:48:42.670Z,20.79
2022-09-27T13:51:18.208Z,20.81
2022-09-27T13:53:56.009Z,20.80
2022-09-27T13:56:37.972Z,20.79
2022-09-27T13:59:08.720Z,20.81
2022-09-27T14:01:39.592Z,20.84
2022-09-27T14:04:24.899Z,20.87
2022-09-27T14:07:02.966Z,20.90
2022-09-27T14:09:33.119Z,20.91
2022-09-27T14:12:03.282Z,20.91
2022-09-27T14:14:33.000Z,20.92
2022-09-27T14:17:01.572Z,20.91
2022-09-27T14:19:29.681Z,20.92
2022-09-27T14:21:57.717Z,20.92
2022-09-27T14:24:27.966Z,20.93
2022-09-27T14:27:07.088Z,20.95
2022-09-27T14:29:40.347Z,20.94
2022-09-27T14:32:10.803Z,20.93
2022-09-27T14:34:39.392Z,20.92
2022-09-27T14:37:23.992Z,20.91
2022-09-27T14:39:57.067Z,20.88
2022-09-27T14:42:26.472Z,20.88
2022-09-27T14:44:55.848Z,20.88
2022-09-27T14:47:24.949Z,20.84
2022-09-27T14:49:54.073Z,20.83
2022-09-27T14:52:27.222Z,20.81
2022-09-27T14:54:59.075Z,20.80
2022-09-27T14:57:28.272Z,20.79
2022-09-27T14:59:57.557Z,20.78
2022-09-27T15:02:26.205Z,20.78
2022-09-27T15:04:54.705Z,20.79
2022-09-27T15:07:23.220Z,20.80
2022-09-27T15:09:51.641Z,20.79
2022-09-27T15:12:24.696Z,20.78
2022-09-27T15:14:54.323Z,20.78
2022-09-27T15:17:25.475Z,20.79
2022-09-27T15:20:18.101Z,20.79
2022-09-27T15:22:46.300Z,20.79
2022-09-27T15:25:20.013Z,20.79
2022-09-27T15:27:50.250Z,20.78
2022-09-27T15:30:19.298Z,20.80
2022-09-27T15:32:51.566Z,20.83
2022-09-27T15:35:23.509Z,20.84
2022-09-27T15:37:51.901Z,20.84
2022-09-27T15:40:52.064Z,20.84
2022-09-27T15:43:21.311Z,20.86
2022-09-27T15:45:50.685Z,20.86
2022-09-27T15:48:19.456Z,20.83
2022-09-27T15:50:47.921Z,20.84
2022-09-27T15:53:29.756Z,20.85
2022-09-27T15:55:57.631Z,20.86
2022-09-27T15:58:25.675Z,20.85
2022-09-27T16:00:54.367Z,20.83
2022-09-27T16:03:22.782Z,20.83
2022-09-27T16:05:50.769Z,20.82
2022-09-27T16:08:18.733Z,20.79
2022-09-27T16:10:48.441Z,20.75
2022-09-27T16:13:16.244Z,20.71
2022-09-27T16:15:45.121Z,20.65
2022-09-27T16:18:13.136Z,20.57
2022-09-27T16:20:41.304Z,20.49
2022-09-27T16:23:09.176Z,20.41
2022-09-27T16:25:37.222Z,20.35
2022-09-27T16:28:05.455Z,20.31
2022-09-27T16:30:33.564Z,20.28
2022-09-27T16:33:01.409Z,20.26
2022-09-27T16:35:29.583Z,20.25
2022-09-27T16:37:57.993Z,20.24
2022-09-27T16:40:27.550Z,20.23
2022-09-27T16:42:55.578Z,20.21
2022-09-27T16:45:23.381Z,20.20
2022-09-27T16:47:51.321Z,20.19
2022-09-27T16:50:37.281Z,20.19
2022-09-27T16:53:05.623Z,20.17
2022-09-27T16:55:33.619Z,20.14
2022-09-27T16:58:03.307Z,20.08
2022-09-27T17:00:33.056Z,20.02
2022-09-27T17:03:01.023Z,19.97
2022-09-27T17:05:28.905Z,19.91
2022-09-27T17:07:58.057Z,19.85
2022-09-27T17:10:25.890Z,19.83
2022-09-27T17:12:55.427Z,19.83
2022-09-27T17:15:23.695Z,19.83
2022-09-27T17:17:51.626Z,19.82
2022-09-27T17:20:19.571Z,19.81
2022-09-27T17:22:48.432Z,19.78
2022-09-27T17:25:16.457Z,19.76
2022-09-27T17:27:44.423Z,19.73
2022-09-27T17:30:13.352Z,19.70
2022-09-27T17:32:41.272Z,19.68
2022-09-27T17:35:09.449Z,19.68
2022-09-27T17:37:37.398Z,19.65
2022-09-27T17:40:06.208Z,19.62
2022-09-27T17:42:36.569Z,19.56
2022-09-27T17:45:04.736Z,19.50
2022-09-27T17:47:51.267Z,19.46
2022-09-27T17:50:25.162Z,19.45
2022-09-27T17:52:53.457Z,19.43
2022-09-27T17:55:21.487Z,19.40
2022-09-27T17:57:50.043Z,19.36
2022-09-27T18:00:18.787Z,19.32
2022-09-27T18:02:47.104Z,19.31
2022-09-27T18:05:15.224Z,19.30
2022-09-27T18:07:43.075Z,19.30
2022-09-27T18:10:11.076Z,19.28
2022-09-27T18:12:40.565Z,19.27
2022-09-27T18:15:09.258Z,19.24
2022-09-27T18:17:37.137Z,19.23
2022-09-27T18:20:06.223Z,19.22
2022-09-27T18:22:34.598Z,19.21
2022-09-27T18:25:03.304Z,19.19
2022-09-27T18:27:31.958Z,19.19
2022-09-27T18:30:02.710Z,19.18
2022-09-27T18:32:30.647Z,19.15
2022-09-27T18:34:58.608Z,19.10
2022-09-27T18:37:26.510Z,19.06
2022-09-27T18:39:55.055Z,19.04
2022-09-27T18:42:22.931Z,18.99
2022-09-27T18:44:50.740Z,18.92
2022-09-27T18:47:18.925Z,18.86
2022-09-27T18:49:46.877Z,18.83
2022-09-27T18:52:14.956Z,18.77
2022-09-27T18:54:43.103Z,18.72
2022-09-27T18:57:10.939Z,18.67
2022-09-27T18:59:38.948Z,18.62
2022-09-27T19:02:06.925Z,18.64
2022-09-27T19:04:34.928Z,18.65
2022-09-27T19:07:02.771Z,18.64
2022-09-27T19:09:30.832Z,18.64
2022-09-27T19:11:58.772Z,18.64
2022-09-27T19:14:27.281Z,18.56
2022-09-27T19:16:55.176Z,18.39
2022-09-27T19:19:23.622Z,18.21
2022-09-27T19:21:51.457Z,18.04
2022-09-27T19:24:19.391Z,17.86
2022-09-27T19:26:47.401Z,17.57
2022-09-27T19:29:15.343Z,17.30
2022-09-27T19:31:43.459Z,17.09
2022-09-27T19:34:11.492Z,16.96
2022-09-27T19:36:39.450Z,16.84
2022-09-27T19:39:07.478Z,16.76
2022-09-27T19:41:35.387Z,16.69
2022-09-27T19:44:03.427Z,16.60
2022-09-27T19:46:31.274Z,16.58
2022-09-27T19:49:00.059Z,16.51
2022-09-27T19:51:28.032Z,16.47
2022-09-27T19:53:56.291Z,16.49
2022-09-27T19:56:28.192Z,16.53
2022-09-27T19:58:59.719Z,16.55
2022-09-27T20:01:29.565Z,16.50
2022-09-27T20:04:09.548Z,16.48
2022-09-27T20:06:40.077Z,16.48
2022-09-27T20:09:08.875Z,16.49
2022-09-27T20:11:37.076Z,16.48
2022-09-27T20:14:04.986Z,16.47
2022-09-27T20:16:32.912Z,16.48
2022-09-27T20:19:00.899Z,16.48
2022-09-27T20:21:31.931Z,16.48
2022-09-27T20:24:01.320Z,16.47
2022-09-27T20:26:30.179Z,16.40
2022-09-27T20:29:00.723Z,16.34
2022-09-27T20:31:29.621Z,16.30
2022-09-27T20:33:57.627Z,16.29
2022-09-27T20:36:26.329Z,16.26
2022-09-27T20:38:59.629Z,16.25
2022-09-27T20:41:32.572Z,16.25
2022-09-27T20:44:02.707Z,16.27
2022-09-27T20:46:31.242Z,16.29
2022-09-27T20:49:00.290Z,16.30
2022-09-27T20:51:30.256Z,16.29
2022-09-27T20:53:58.371Z,16.27
2022-09-27T20:56:28.163Z,16.26
2022-09-27T20:58:57.251Z,16.22
2022-09-27T21:01:26.165Z,16.19
2022-09-27T21:03:54.450Z,16.18
2022-09-27T21:06:22.820Z,16.19
2022-09-27T21:08:50.640Z,16.19
2022-09-27T21:11:19.369Z,16.17
2022-09-27T21:13:48.048Z,16.13
2022-09-27T21:16:16.690Z,16.08
2022-09-27T21:18:44.647Z,16.04
2022-09-27T21:21:13.380Z,16.00
2022-09-27T21:23:44.831Z,15.97
2022-09-27T21:26:13.888Z,15.94
2022-09-27T21:28:42.951Z,15.90
2022-09-27T21:31:11.792Z,15.87
2022-09-27T21:33:40.552Z,15.86
2022-09-27T21:36:10.930Z,15.85
2022-09-27T21:38:38.863Z,15.83
2022-09-27T21:41:09.628Z,15.78
2022-09-27T21:43:39.252Z,15.75
2022-09-27T21:46:07.636Z,15.71
2022-09-27T21:48:36.128Z,15.66
2022-09-27T21:51:07.812Z,15.63
2022-09-27T21:53:36.116Z,15.59
2022-09-27T21:56:04.615Z,15.55
2022-09-27T21:58:36.494Z,15.50
2022-09-27T22:01:08.618Z,15.45
2022-09-27T22:03:36.975Z,15.42
2022-09-27T22:06:05.374Z,15.39
2022-09-27T22:08:35.872Z,15.36
2022-09-27T22:11:03.836Z,15.33
2022-09-27T22:13:32.039Z,15.31
2022-09-27T22:16:03.055Z,15.28
2022-09-27T22:18:31.000Z,15.26
2022-09-27T22:21:01.582Z,15.24
2022-09-27T22:23:29.527Z,15.22
2022-09-27T22:25:57.513Z,15.19
2022-09-27T22:28:25.684Z,15.15
2022-09-27T22:30:53.754Z,15.11
2022-09-27T22:33:21.900Z,15.07
2022-09-27T22:35:49.666Z,15.04
2022-09-27T22:38:17.511Z,15.01
2022-09-27T22:40:53.307Z,14.98
2022-09-27T22:43:21.191Z,14.94
2022-09-27T22:45:49.302Z,14.92
2022-09-27T22:48:17.482Z,14.89
2022-09-27T22:50:45.637Z,14.89
2022-09-27T22:53:13.553Z,14.87
2022-09-27T22:55:41.465Z,14.86
2022-09-27T22:58:09.268Z,14.84
2022-09-27T23:00:38.166Z,14.86
2022-09-27T23:03:06.219Z,14.87
2022-09-27T23:05:34.181Z,14.84
2022-09-27T23:08:02.260Z,14.82
2022-09-27T23:10:30.074Z,14.81
2022-09-27T23:12:58.475Z,14.79
2022-09-27T23:15:26.437Z,14.77
2022-09-27T23:17:54.853Z,14.74
2022-09-27T23:20:22.948Z,14.71
2022-09-27T23:22:51.416Z,14.68
2022-09-27T23:25:20.792Z,14.65
2022-09-27T23:27:49.693Z,14.65
2022-09-27T23:30:18.781Z,14.64
2022-09-27T23:32:51.576Z,14.62
2022-09-27T23:35:19.549Z,14.60
2022-09-27T23:37:47.405Z,14.59
2022-09-27T23:40:15.640Z,14.60
2022-09-27T23:42:43.548Z,14.60
2022-09-27T23:45:11.575Z,14.60
2022-09-27T23:47:40.005Z,14.59
2022-09-27T23:50:09.402Z,14.57
2022-09-27T23:52:37.310Z,14.58
2022-09-27T23:55:06.284Z,14.55
2022-09-27T23:57:34.209Z,14.51
